Time;durP1;ratioP1;P1;durP2;ratioP2;P2;SDS_P1;SDS_P2;PMS_P1;PMS_P2;Temp;Humidity;BMP_temperature;BMP_pressure;BME280_temperature;BME280_humidity;BME280_pressure;Samples;Min_cycle;Max_cycle;Signal;HPM_P1;HPM_P2
2021/05/14 08:08:13;;;;;;;21.48;17.45;;;;;;;19.07;48.16;99311.66;5111383;27;20355;-64
2021/05/14 08:10:39;;;;;;;19.90;14.77;;;;;;;18.99;48.03;99317.34;5110238;28;20032;-63
2021/05/14 08:13:05;;;;;;;17.42;13.30;;;;;;;19.07;47.70;99321.47;5111040;28;20040;-63
2021/05/14 08:15:31;;;;;;;17.38;12.68;;;;;;;19.19;47.50;99315.59;5111079;28;20099;-63
2021/05/14 08:17:57;;;;;;;16.85;12.38;;;;;;;19.21;47.16;99319.88;5109797;28;20050;-65
2021/05/14 08:20:24;;;;;;;17.20;11.88;;;;;;;19.26;47.24;99319.66;5110765;28;20080;-64
2021/05/14 08:22:50;;;;;;;17.90;12.70;;;;;;;19.25;47.12;99320.63;5110842;28;20473;-61
2021/05/14 08:25:17;;;;;;;17.17;12.18;;;;;;;19.22;47.19;99324.28;5110838;28;20024;-60
2021/05/14 08:27:43;;;;;;;16.00;10.73;;;;;;;19.26;47.03;99323.19;5110738;28;20036;-60
2021/05/14 08:30:10;;;;;;;15.52;11.32;;;;;;;19.34;46.68;99326.38;5110756;28;20032;-60
2021/05/14 08:32:36;;;;;;;13.60;10.18;;;;;;;19.39;46.51;99329.69;5110862;28;20024;-60
2021/05/14 08:35:04;;;;;;;13.75;10.35;;;;;;;19.36;46.28;99324.50;5109781;28;20165;-60
2021/05/14 08:37:30;;;;;;;14.68;10.23;;;;;;;19.29;46.46;99320.41;5110627;28;20113;-59
2021/05/14 08:39:56;;;;;;;15.77;10.40;;;;;;;19.35;46.33;99328.09;5110534;28;20032;-63
2021/05/14 08:42:23;;;;;;;16.27;11.20;;;;;;;19.36;46.42;99324.50;5110434;28;20035;-61
2021/05/14 08:44:49;;;;;;;16.38;11.38;;;;;;;19.29;46.91;99331.06;5110604;28;20024;-61
2021/05/14 08:47:16;;;;;;;16.05;11.65;;;;;;;19.41;46.80;99326.94;5110159;28;20122;-61
2021/05/14 08:49:44;;;;;;;15.85;10.10;;;;;;;19.50;47.34;99331.03;5110324;28;20043;-61
2021/05/14 08:52:11;;;;;;;14.50;9.20;;;;;;;19.57;48.22;99337.75;5109188;28;20028;-60
2021/05/14 08:54:42;;;;;;;15.60;8.35;;;;;;;19.60;48.16;99330.50;5111313;28;20035;-61
2021/05/14 08:57:09;;;;;;;16.17;8.32;;;;;;;19.65;48.29;99330.28;5108978;28;20017;-59
2021/05/14 08:59:35;;;;;;;11.88;8.18;;;;;;;19.71;48.79;99332.66;5110145;28;20023;-59
2021/05/14 09:02:01;;;;;;;12.13;7.90;;;;;;;19.72;48.55;99337.06;5110143;28;20035;-58
2021/05/14 09:04:30;;;;;;;11.43;7.43;;;;;;;19.73;48.65;99330.78;5091897;28;20051;-59
2021/05/14 09:06:57;;;;;;;11.15;6.72;;;;;;;19.72;49.09;99337.91;5108540;28;20028;-59
2021/05/14 09:09:23;;;;;;;10.05;6.50;;;;;;;19.74;48.93;99340.50;5110005;28;20027;-60
2021/05/14 09:11:51;;;;;;;9.80;6.22;;;;;;;19.73;49.55;99333.44;5110030;28;20107;-60
2021/05/14 09:14:44;;;;;;;11.88;6.57;;;;;;;19.76;48.82;99349.28;5109986;28;20097;-60
2021/05/14 09:17:14;;;;;;;9.68;6.05;;;;;;;19.77;49.56;99343.00;5107649;28;20032;-60
2021/05/14 09:19:42;;;;;;;10.00;5.70;;;;;;;19.78;50.00;99350.06;5096545;28;20036;-60
2021/05/14 09:22:18;;;;;;;9.82;5.78;;;;;;;19.80;49.73;99340.22;5096217;28;20039;-61
2021/05/14 09:24:47;;;;;;;9.15;5.40;;;;;;;19.80;49.97;99345.53;5096344;28;20036;-60
2021/05/14 09:27:33;;;;;;;10.85;5.50;;;;;;;19.82;49.52;99340.97;5096304;28;20105;-60
2021/05/14 09:30:01;;;;;;;8.95;4.82;;;;;;;19.84;50.11;99343.59;5078077;28;20085;-59
2021/05/14 09:32:29;;;;;;;8.65;5.45;;;;;;;19.84;50.37;99341.78;5094817;28;20039;-59
2021/05/14 09:34:56;;;;;;;8.30;5.20;;;;;;;19.87;50.34;99340.78;5095965;28;20118;-59
2021/05/14 09:37:25;;;;;;;8.50;5.00;;;;;;;19.89;50.47;99338.88;5095825;28;20058;-59
2021/05/14 09:40:20;;;;;;;8.13;5.15;;;;;;;19.90;50.12;99337.97;5095831;28;20055;-59
2021/05/14 09:42:47;;;;;;;9.90;5.18;;;;;;;19.90;50.67;99335.28;5096258;28;20024;-59
2021/05/14 09:45:18;;;;;;;8.30;4.78;;;;;;;19.93;50.73;99340.50;5095689;28;20036;-59
2021/05/14 09:47:57;;;;;;;7.90;4.28;;;;;;;19.93;50.96;99341.34;5095658;28;20028;-59
2021/05/14 09:50:30;;;;;;;9.00;4.53;;;;;;;19.93;50.95;99344.03;5079893;28;20497;-60
2021/05/14 09:53:08;;;;;;;8.65;4.80;;;;;;;19.95;50.65;99341.25;5095601;28;20395;-60
2021/05/14 09:55:35;;;;;;;8.45;4.53;;;;;;;19.94;51.08;99340.38;5095529;28;20123;-60
2021/05/14 09:58:08;;;;;;;7.65;4.55;;;;;;;19.96;50.98;99332.34;5095816;28;20535;-60
2021/05/14 10:00:35;;;;;;;7.93;4.65;;;;;;;19.96;51.45;99343.00;5095672;28;20031;-60
2021/05/14 10:03:02;;;;;;;8.43;4.68;;;;;;;19.97;51.57;99342.06;5095731;28;20027;-60
2021/05/14 10:05:28;;;;;;;8.95;4.72;;;;;;;19.99;51.42;99334.84;5095155;28;20026;-60
2021/05/14 10:07:54;;;;;;;7.15;4.20;;;;;;;19.98;51.37;99331.34;5094521;28;20552;-60
2021/05/14 10:10:21;;;;;;;8.48;4.65;;;;;;;19.98;51.36;99342.00;5094117;28;20485;-60
2021/05/14 10:12:48;;;;;;;7.70;4.65;;;;;;;19.99;51.79;99330.41;5094326;28;20032;-60
2021/05/14 10:15:15;;;;;;;7.18;4.47;;;;;;;19.99;51.66;99333.06;5095383;28;20050;-60
2021/05/14 10:17:46;;;;;;;7.68;4.30;;;;;;;20.01;51.62;99327.63;5095129;28;20032;-60
2021/05/14 10:20:13;;;;;;;8.60;4.53;;;;;;;20.02;51.69;99327.56;5095413;28;20388;-60
2021/05/14 10:22:39;;;;;;;7.70;4.45;;;;;;;20.03;51.76;99328.44;5095060;28;20039;-60
2021/05/14 10:25:07;;;;;;;7.53;4.20;;;;;;;20.03;51.88;99328.44;5093741;28;20086;-60
2021/05/14 10:27:46;;;;;;;7.60;4.03;;;;;;;20.03;51.53;99325.78;5094310;28;20020;-60
2021/05/14 10:30:12;;;;;;;7.97;4.38;;;;;;;20.05;51.48;99330.09;5093912;28;20519;-60
2021/05/14 10:32:44;;;;;;;7.25;3.90;;;;;;;20.06;51.19;99322.94;5094844;28;20032;-60
2021/05/14 10:35:15;;;;;;;7.30;4.13;;;;;;;20.07;51.25;99325.53;5094770;28;20036;-60
2021/05/14 10:37:54;;;;;;;8.80;4.20;;;;;;;20.05;51.25;99319.44;5095040;28;20471;-60
2021/05/14 10:40:29;;;;;;;;;;;;;;;20.03;50.98;99315.97;5095490;28;20073;-60
2021/05/14 10:42:56;;;;;;;6.97;3.70;;;;;;;20.06;51.71;99320.28;5094700;28;19998;-60
2021/05/14 10:45:35;;;;;;;7.50;4.03;;;;;;;20.07;51.06;99320.19;5094929;28;20401;-60
2021/05/14 10:48:01;;;;;;;7.30;4.10;;;;;;;20.07;51.64;99322.88;5094604;28;20438;-60
2021/05/14 10:50:38;;;;;;;6.75;3.92;;;;;;;20.08;51.08;99313.94;5094545;28;20032;-60
2021/05/14 10:53:28;;;;;;;7.70;3.90;;;;;;;20.08;51.03;99318.41;5094694;28;20039;-60
2021/05/14 10:56:10;;;;;;;6.40;3.70;;;;;;;20.07;51.80;99306.88;5094612;28;20101;-59
2021/05/14 10:59:14;;;;;;;7.22;3.92;;;;;;;20.08;51.32;99311.28;5094718;28;20071;-60
2021/05/14 11:01:44;;;;;;;7.13;4.00;;;;;;;20.10;51.62;99317.41;5012830;28;20041;-60
2021/05/14 11:04:13;;;;;;;8.68;4.10;;;;;;;20.10;51.36;99311.22;5012321;28;20129;-60
2021/05/14 11:06:50;;;;;;;7.60;3.65;;;;;;;20.11;51.49;99308.47;5012046;28;20046;-60
2021/05/14 11:09:17;;;;;;;7.30;3.75;;;;;;;20.12;51.56;99309.34;5012340;28;20225;-60
2021/05/14 11:12:10;;;;;;;6.75;3.60;;;;;;;20.11;51.34;99305.81;5012196;28;20463;-59
2021/05/14 11:14:50;;;;;;;7.63;3.80;;;;;;;20.11;51.30;99303.16;5009086;28;20049;-60
2021/05/14 11:17:16;;;;;;;8.80;3.90;;;;;;;20.12;51.59;99310.16;5012082;28;20444;-60
2021/05/14 11:19:49;;;;;;;7.03;3.88;;;;;;;20.12;51.50;99310.16;5012321;28;20081;-59
2021/05/14 11:22:39;;;;;;;7.45;4.00;;;;;;;20.13;51.36;99314.56;5012020;28;20029;-60
2021/05/14 11:25:13;;;;;;;7.25;3.95;;;;;;;20.13;51.44;99305.72;5002381;28;20053;-60
2021/05/14 11:27:40;;;;;;;7.25;3.80;;;;;;;20.15;51.60;99306.50;5011911;28;20022;-60
2021/05/14 11:30:12;;;;;;;6.90;3.88;;;;;;;20.15;51.21;99306.50;5011901;28;20129;-59
2021/05/14 11:32:39;;;;;;;6.88;4.05;;;;;;;20.14;51.76;99299.44;5060959;28;20040;-60
2021/05/14 11:35:15;;;;;;;7.32;3.95;;;;;;;20.14;51.68;99307.44;5093939;28;20044;-60
2021/05/14 11:37:53;;;;;;;7.47;3.70;;;;;;;20.14;51.41;99302.09;5093735;28;20077;-60
2021/05/14 11:40:33;;;;;;;7.70;3.88;;;;;;;20.16;51.22;99300.25;5093787;28;20028;-59
2021/05/14 11:43:00;;;;;;;6.32;3.50;;;;;;;20.14;51.55;99305.63;5093687;28;20036;-59
2021/05/14 11:45:36;;;;;;;6.18;3.65;;;;;;;20.15;51.18;99303.84;5094087;28;20028;-60
2021/05/14 11:48:09;;;;;;;6.80;3.40;;;;;;;20.14;51.28;99300.31;5093605;28;20118;-60
2021/05/14 11:50:42;;;;;;;6.80;3.85;;;;;;;20.14;51.67;99302.97;5094078;28;20110;-60
2021/05/14 11:53:09;;;;;;;5.93;3.50;;;;;;;20.17;51.90;99305.50;5093460;28;20036;-60
2021/05/14 11:55:37;;;;;;;7.15;3.97;;;;;;;20.16;51.59;99303.78;5093372;28;20496;-59
2021/05/14 11:58:03;;;;;;;7.78;4.13;;;;;;;20.18;51.56;99309.03;5093467;28;20118;-59
2021/05/14 12:00:36;;;;;;;6.57;3.72;;;;;;;20.17;51.18;99299.31;5093374;28;20031;-61
2021/05/14 12:03:04;;;;;;;6.85;3.72;;;;;;;20.18;51.39;99301.03;5093400;28;20071;-59
2021/05/14 12:05:30;;;;;;;6.60;3.90;;;;;;;20.18;51.24;99306.38;5093104;28;20396;-60
2021/05/14 12:08:29;;;;;;;6.85;3.70;;;;;;;20.18;51.24;99303.69;5093912;28;20036;-60
2021/05/14 12:11:03;;;;;;;7.10;3.88;;;;;;;20.18;51.41;99291.22;5011544;28;20653;-59
2021/05/14 12:13:33;;;;;;;8.48;3.80;;;;;;;20.18;51.07;99293.03;5011660;28;20042;-59
2021/05/14 12:16:03;;;;;;;6.78;3.60;;;;;;;20.17;51.00;99294.84;5011232;28;20034;-60
2021/05/14 12:18:43;;;;;;;6.40;3.63;;;;;;;20.19;51.31;99297.41;5011339;28;20165;-60
2021/05/14 12:21:23;;;;;;;6.63;3.42;;;;;;;20.21;51.06;99300.88;5011429;28;20050;-60
2021/05/14 12:23:49;;;;;;;5.95;3.15;;;;;;;20.22;51.20;99301.72;5024793;22;20069;-58
2021/05/14 12:26:15;;;;;;;6.40;3.70;;;;;;;20.23;51.03;99295.47;5051704;28;20099;-58
2021/05/14 12:28:45;;;;;;;8.43;3.70;;;;;;;20.24;51.04;99289.19;5053014;28;20072;-58
2021/05/14 12:31:16;;;;;;;6.68;3.42;;;;;;;20.23;50.73;99296.34;5052940;28;20036;-58
2021/05/14 12:33:51;;;;;;;6.20;3.50;;;;;;;20.23;50.73;99303.47;5060228;28;20412;-58
2021/05/14 12:36:28;;;;;;;6.10;3.30;;;;;;;20.24;50.59;99287.41;5072919;28;20032;-58
2021/05/14 12:39:03;;;;;;;6.78;3.90;;;;;;;20.24;50.50;99290.06;5073484;28;20029;-58
2021/05/14 12:41:30;;;;;;;6.70;3.58;;;;;;;20.25;50.80;99290.91;5073179;28;20032;-58
2021/05/14 12:44:08;;;;;;;6.32;3.45;;;;;;;20.24;50.63;99287.41;5071506;28;20033;-58
2021/05/14 12:46:34;;;;;;;5.90;3.25;;;;;;;20.23;50.75;99280.34;5072762;28;20079;-58
2021/05/14 12:49:11;;;;;;;6.63;3.50;;;;;;;20.25;50.43;99280.22;5071922;28;20063;-58
2021/05/14 12:51:37;;;;;;;6.05;3.30;;;;;;;20.26;50.81;99279.31;5073097;28;20071;-59
2021/05/14 12:54:04;;;;;;;6.70;3.40;;;;;;;20.26;50.56;99271.31;5075424;28;20029;-58
2021/05/14 12:56:30;;;;;;;6.82;3.50;;;;;;;20.27;50.67;99279.22;5076766;28;20029;-58
2021/05/14 12:59:00;;;;;;;5.80;3.28;;;;;;;20.26;50.27;99285.50;5075195;28;20102;-58
2021/05/14 13:01:27;;;;;;;7.47;3.88;;;;;;;20.28;50.50;99283.63;5076564;28;20453;-58
2021/05/14 13:04:09;;;;;;;5.65;3.15;;;;;;;20.28;50.11;99288.97;5076864;28;20035;-58
2021/05/14 13:06:35;;;;;;;5.97;3.47;;;;;;;20.28;50.39;99286.28;5076266;28;20037;-58
2021/05/14 13:09:21;;;;;;;8.18;3.65;;;;;;;20.28;50.21;99285.44;5076559;28;20042;-58
2021/05/14 13:11:47;;;;;;;6.55;3.40;;;;;;;20.29;50.35;99292.50;5076343;28;20028;-58
2021/05/14 13:14:13;;;;;;;6.05;3.30;;;;;;;20.29;50.23;99289.81;5076141;28;20071;-58
2021/05/14 13:16:39;;;;;;;6.40;3.50;;;;;;;20.28;50.23;99296.09;5076150;28;20028;-58
2021/05/14 13:19:05;;;;;;;5.75;3.25;;;;;;;20.28;50.08;99298.75;5076246;28;20048;-58
2021/05/14 13:21:32;;;;;;;6.70;3.80;;;;;;;20.29;50.20;99293.34;5075997;28;20028;-58
2021/05/14 13:23:58;;;;;;;5.72;3.17;;;;;;;20.29;50.21;99297.81;5076089;28;20044;-58
2021/05/14 13:26:25;;;;;;;7.00;3.40;;;;;;;20.28;50.29;99291.63;5074620;28;20025;-58
2021/05/14 13:28:51;;;;;;;6.05;3.40;;;;;;;20.29;50.37;99292.50;5074726;28;20481;-58
2021/05/14 13:31:19;;;;;;;6.75;3.25;;;;;;;20.29;50.04;99293.34;5076205;28;20510;-58
2021/05/14 13:33:47;;;;;;;6.07;3.47;;;;;;;20.29;49.82;99287.16;5075751;28;20031;-58
2021/05/14 13:36:16;;;;;;;6.00;3.20;;;;;;;20.29;49.92;99296.03;5075752;28;20139;-58
2021/05/14 13:38:42;;;;;;;6.70;3.58;;;;;;;20.30;49.88;99291.56;5075667;28;20032;-58
2021/05/14 13:41:09;;;;;;;6.43;3.55;;;;;;;20.31;50.07;99291.44;5075970;28;20024;-58
2021/05/14 13:43:35;;;;;;;6.05;3.13;;;;;;;20.30;50.06;99287.09;5075873;28;20107;-58
2021/05/14 13:46:01;;;;;;;6.53;3.45;;;;;;;20.31;49.69;99278.13;5075552;28;20048;-58
2021/05/14 13:48:27;;;;;;;9.98;3.50;;;;;;;20.32;49.85;99271.00;5074262;28;20044;-58
2021/05/14 13:50:54;;;;;;;6.10;3.25;;;;;;;20.32;50.03;99273.66;5075407;28;20051;-58
2021/05/14 13:53:24;;;;;;;6.38;3.30;;;;;;;20.33;49.86;99278.94;5074369;28;20531;-58
2021/05/14 13:55:50;;;;;;;5.93;3.13;;;;;;;20.32;50.05;99271.00;5075384;28;20063;-58
2021/05/14 13:58:16;;;;;;;5.88;3.35;;;;;;;20.33;49.95;99270.09;5076415;28;20051;-58
2021/05/14 14:00:42;;;;;;;5.75;3.25;;;;;;;20.32;49.78;99261.22;5075537;28;20032;-58
2021/05/14 14:03:09;;;;;;;5.55;2.75;;;;;;;20.33;49.93;99272.75;5073995;28;20075;-58
2021/05/14 14:05:35;;;;;;;6.40;3.45;;;;;;;20.35;49.86;99273.53;5075161;28;20469;-59
2021/05/14 14:08:01;;;;;;;8.13;3.65;;;;;;;20.41;50.11;99270.56;5075123;28;20081;-58
2021/05/14 14:10:27;;;;;;;6.90;3.60;;;;;;;20.39;49.81;99267.09;5075210;28;20123;-59
2021/05/14 14:12:53;;;;;;;8.60;4.72;;;;;;;20.38;49.46;99266.25;5075133;28;20025;-60
2021/05/14 14:15:20;;;;;;;7.57;4.60;;;;;;;20.40;49.21;99261.69;5075307;28;20029;-63
2021/05/14 14:20:28;;;;;;;10.93;5.40;;;;;;;20.62;47.96;99263.22;5111988;27;20384;-63
2021/05/14 14:22:54;;;;;;;8.70;5.43;;;;;;;20.54;48.07;99253.84;5111079;28;20534;-62
2021/05/14 14:25:20;;;;;;;7.72;4.88;;;;;;;20.54;47.93;99253.84;5111391;28;20031;-62
2021/05/14 14:27:46;;;;;;;9.13;5.70;;;;;;;20.53;47.77;99256.59;5111079;28;20063;-63
2021/05/14 14:30:13;;;;;;;10.95;6.18;;;;;;;20.53;47.02;99261.94;5111263;28;20483;-63
2021/05/14 14:32:40;;;;;;;9.40;6.57;;;;;;;20.55;46.39;99260.06;5111209;28;20032;-63
2021/05/14 14:35:07;;;;;;;10.55;6.25;;;;;;;20.53;45.90;99249.47;5110873;28;20027;-63
2021/05/14 14:37:33;;;;;;;8.63;6.15;;;;;;;20.57;46.23;99248.34;5110907;28;20118;-63
2021/05/14 14:39:59;;;;;;;10.25;6.30;;;;;;;20.58;46.08;99252.75;5110924;28;20084;-63
2021/05/14 14:42:26;;;;;;;10.23;6.07;;;;;;;20.60;45.86;99244.66;5110795;28;20028;-63
2021/05/14 14:44:52;;;;;;;9.57;5.70;;;;;;;20.58;45.83;99244.75;5111229;28;20035;-63
2021/05/14 14:47:18;;;;;;;9.85;6.22;;;;;;;20.61;45.16;99253.53;5110677;28;20043;-63
2021/05/14 14:49:44;;;;;;;11.40;5.72;;;;;;;20.63;44.82;99259.63;5111189;28;20024;-63
2021/05/14 14:52:10;;;;;;;9.85;6.15;;;;;;;20.59;44.87;99258.94;5109525;28;20043;-63
2021/05/14 14:54:37;;;;;;;10.80;6.10;;;;;;;20.58;44.45;99258.06;5110526;28;20031;-63
2021/05/14 14:57:03;;;;;;;9.27;5.88;;;;;;;20.61;44.33;99248.19;5109354;28;20034;-63
2021/05/14 14:59:29;;;;;;;9.90;6.47;;;;;;;20.56;41.88;99246.63;5110743;28;20034;-64
2021/05/14 15:01:55;;;;;;;13.10;6.95;;;;;;;20.55;40.74;99249.38;5110560;28;20122;-64
2021/05/14 15:04:22;;;;;;;10.05;6.38;;;;;;;20.54;40.84;99248.53;5109106;28;20059;-64
2021/05/14 15:06:48;;;;;;;9.77;6.22;;;;;;;20.58;41.16;99243.88;5110270;28;20038;-63
2021/05/14 15:09:14;;;;;;;11.80;5.68;;;;;;;20.56;41.50;99246.63;5110548;28;20059;-63
2021/05/14 15:11:40;;;;;;;9.57;5.90;;;;;;;20.58;41.58;99247.41;5110474;28;20023;-64
2021/05/14 15:14:06;;;;;;;9.15;5.20;;;;;;;20.59;41.82;99249.13;5110399;28;20032;-63
2021/05/14 15:16:32;;;;;;;9.52;5.50;;;;;;;20.59;41.57;99250.94;5110129;28;20032;-61
2021/05/14 15:18:59;;;;;;;9.02;5.53;;;;;;;20.56;41.10;99251.94;5109884;28;20031;-61
2021/05/14 15:21:25;;;;;;;8.82;5.13;;;;;;;20.55;41.62;99250.22;5108846;28;20050;-61
2021/05/14 15:23:51;;;;;;;8.40;5.20;;;;;;;20.56;41.75;99251.06;5110225;28;20055;-61
2021/05/14 15:26:17;;;;;;;8.43;4.97;;;;;;;20.54;41.47;99255.66;5109950;28;20519;-61
2021/05/14 15:28:43;;;;;;;8.20;4.85;;;;;;;20.57;41.39;99252.81;5110165;28;20050;-59
2021/05/14 15:31:09;;;;;;;9.57;5.25;;;;;;;20.53;41.54;99249.47;5100187;28;20036;-61
2021/05/14 15:33:35;;;;;;;10.10;5.10;;;;;;;20.50;40.63;99251.41;5096373;28;20477;-61
2021/05/14 15:36:02;;;;;;;8.38;4.95;;;;;;;20.51;40.69;99248.66;5096073;28;20032;-61
2021/05/14 15:38:31;;;;;;;9.13;4.57;;;;;;;20.53;41.12;99246.78;5096015;28;20025;-61
2021/05/14 15:40:58;;;;;;;12.02;4.90;;;;;;;20.53;41.24;99248.59;5096063;28;20035;-61
2021/05/14 15:43:25;;;;;;;8.05;4.60;;;;;;;20.51;41.32;99254.00;5096098;28;20096;-61
2021/05/14 15:45:52;;;;;;;9.63;4.93;;;;;;;20.51;41.23;99248.66;5095996;28;20099;-61
2021/05/14 15:48:18;;;;;;;9.20;5.30;;;;;;;20.51;40.35;99253.13;5095971;28;20040;-61
2021/05/14 15:50:45;;;;;;;8.65;5.28;;;;;;;20.53;40.61;99251.25;5096142;28;20039;-60
2021/05/14 15:53:11;;;;;;;8.23;4.70;;;;;;;20.58;40.80;99255.41;5094628;28;21646;-60
2021/05/14 15:55:37;;;;;;;8.43;4.60;;;;;;;20.60;41.04;99250.00;5095757;28;20036;-60
2021/05/14 15:58:04;;;;;;;8.57;4.82;;;;;;;20.62;40.80;99252.56;5094215;28;20066;-60
2021/05/14 16:00:30;;;;;;;9.55;4.82;;;;;;;20.66;41.13;99248.81;5094540;28;20114;-59
2021/05/14 16:02:58;;;;;;;10.38;5.03;;;;;;;20.68;40.78;99247.75;5096345;28;20032;-60
2021/05/14 16:05:25;;;;;;;10.43;5.10;;;;;;;20.64;40.96;99248.88;5095669;28;20115;-59
2021/05/14 16:07:51;;;;;;;9.20;5.20;;;;;;;20.68;41.10;99247.75;5094355;28;20086;-58
2021/05/14 16:10:17;;;;;;;9.98;5.78;;;;;;;20.68;39.96;99261.09;5095542;28;20024;-59
2021/05/14 16:12:44;;;;;;;9.70;5.65;;;;;;;20.68;39.93;99253.09;5095480;28;20047;-60
2021/05/14 16:15:10;;;;;;;10.20;4.90;;;;;;;20.66;39.93;99252.34;5095361;28;20085;-60
2021/05/14 16:17:39;;;;;;;9.02;5.13;;;;;;;20.63;39.93;99241.81;5095415;28;20038;-60
2021/05/14 16:20:07;;;;;;;8.85;5.70;;;;;;;20.59;39.52;99245.59;5093924;28;20126;-59
2021/05/14 16:22:33;;;;;;;9.85;5.38;;;;;;;20.58;39.18;99243.88;5094010;28;20067;-60
2021/05/14 16:24:59;;;;;;;9.68;5.10;;;;;;;20.50;39.06;99238.94;5095167;28;20032;-61
2021/05/14 16:27:25;;;;;;;9.05;4.97;;;;;;;20.53;39.85;99244.13;5095101;28;20032;-61
2021/05/14 16:29:54;;;;;;;8.18;5.03;;;;;;;20.45;39.81;99237.47;5095085;28;20484;-61
2021/05/14 16:32:21;;;;;;;7.95;4.78;;;;;;;20.42;39.63;99234.97;5095091;28;20032;-61
2021/05/14 16:34:47;;;;;;;9.63;5.00;;;;;;;20.40;40.23;99244.84;5093750;28;20024;-61
2021/05/14 16:37:13;;;;;;;7.80;4.90;;;;;;;20.37;40.64;99236.97;5093656;28;20028;-61
2021/05/14 16:39:39;;;;;;;8.50;4.88;;;;;;;20.38;41.08;99246.72;5094924;28;20066;-60
2021/05/14 16:42:06;;;;;;;10.82;4.63;;;;;;;20.38;40.90;99239.56;5093891;28;20028;-61
2021/05/14 16:44:32;;;;;;;9.95;4.57;;;;;;;20.36;40.62;99241.47;5094860;28;20028;-61
2021/05/14 16:46:59;;;;;;;9.55;4.80;;;;;;;20.34;40.90;99247.81;5094939;28;20456;-62
2021/05/14 16:49:25;;;;;;;10.55;6.18;;;;;;;20.28;39.80;99240.97;5094820;28;20442;-61
2021/05/14 16:51:51;;;;;;;10.65;5.25;;;;;;;20.29;39.31;99241.84;5093597;28;20036;-61
2021/05/14 16:54:17;;;;;;;8.60;4.97;;;;;;;20.28;40.15;99246.31;5094819;28;20024;-62
2021/05/14 16:56:43;;;;;;;8.75;4.88;;;;;;;20.35;40.16;99241.56;5093464;28;20028;-61
2021/05/14 16:59:11;;;;;;;10.55;4.43;;;;;;;20.39;40.15;99243.09;5094745;28;20049;-61
2021/05/14 17:01:37;;;;;;;11.25;4.28;;;;;;;20.39;40.67;99243.09;5094563;28;20040;-61
2021/05/14 17:04:06;;;;;;;11.15;4.22;;;;;;;20.40;40.56;99242.16;5093091;28;20032;-61
2021/05/14 17:06:53;;;;;;;7.75;3.60;;;;;;;20.41;40.43;99236.78;5094426;28;20028;-61
2021/05/14 17:09:20;;;;;;;7.47;3.55;;;;;;;20.42;40.95;99237.63;5095033;28;20032;-61
2021/05/14 17:11:46;;;;;;;6.65;3.25;;;;;;;20.42;41.10;99237.63;5094318;28;20532;-61
2021/05/14 17:14:12;;;;;;;7.22;3.55;;;;;;;20.42;41.40;99243.84;5094471;28;20047;-61
2021/05/14 17:16:39;;;;;;;6.13;3.40;;;;;;;20.43;41.53;99236.69;5094192;28;20039;-61
2021/05/14 17:19:05;;;;;;;8.30;3.65;;;;;;;20.40;41.74;99231.50;5094206;28;20084;-61
2021/05/14 17:21:32;;;;;;;6.60;3.42;;;;;;;20.40;41.96;99237.69;5094338;28;20484;-61
2021/05/14 17:23:58;;;;;;;7.30;3.30;;;;;;;20.39;41.97;99233.31;5094025;28;20441;-61
2021/05/14 17:26:24;;;;;;;6.90;3.40;;;;;;;20.40;41.83;99234.19;5094012;28;20028;-61
2021/05/14 17:28:50;;;;;;;7.28;3.38;;;;;;;20.40;42.07;99237.69;5094922;28;20180;-61
2021/05/14 17:31:17;;;;;;;7.68;3.28;;;;;;;20.41;42.11;99241.22;5093841;28;20024;-61
2021/05/14 17:33:44;;;;;;;6.57;3.13;;;;;;;20.39;42.13;99230.66;5094076;28;20036;-61
2021/05/14 17:36:10;;;;;;;6.88;3.20;;;;;;;20.40;42.23;99242.16;5093917;28;20165;-61
2021/05/14 17:38:37;;;;;;;6.38;3.28;;;;;;;20.40;42.16;99239.50;5093023;28;20051;-61
2021/05/14 17:41:04;;;;;;;6.13;3.10;;;;;;;20.39;42.36;99235.97;5094015;28;20485;-61
2021/05/14 17:43:30;;;;;;;7.60;2.85;;;;;;;20.40;42.16;99240.38;5093727;28;20032;-61
2021/05/14 17:45:56;;;;;;;6.65;3.10;;;;;;;20.41;42.44;99244.75;5094338;28;20032;-61
2021/05/14 17:48:22;;;;;;;6.68;3.03;;;;;;;20.40;42.32;99255.50;5093683;28;20028;-61
2021/05/14 17:50:49;;;;;;;7.18;3.00;;;;;;;20.41;42.38;99251.91;5093932;28;20408;-61
2021/05/14 17:53:15;;;;;;;5.22;2.78;;;;;;;20.40;42.41;99251.03;5093305;28;20043;-61
2021/05/14 17:55:41;;;;;;;7.45;3.28;;;;;;;20.41;42.58;99254.56;5093591;28;20032;-61
2021/05/14 17:58:08;;;;;;;6.53;2.97;;;;;;;20.42;42.45;99253.63;5093515;28;20058;-61
2021/05/14 18:00:34;;;;;;;6.65;3.00;;;;;;;20.40;42.64;99253.69;5075636;28;20124;-61
2021/05/14 18:03:00;;;;;;;6.00;2.90;;;;;;;20.40;42.57;99261.69;5092133;28;20063;-61
2021/05/14 18:05:27;;;;;;;5.40;2.80;;;;;;;20.40;42.63;99261.69;5093748;28;20028;-61
2021/05/14 18:07:53;;;;;;;5.82;3.00;;;;;;;20.41;42.75;99260.75;5093405;28;20032;-61
2021/05/14 18:10:19;;;;;;;7.82;2.95;;;;;;;20.40;42.88;99267.03;5093469;28;20110;-61
2021/05/14 18:12:45;;;;;;;6.88;3.10;;;;;;;20.39;42.81;99267.97;5093565;28;20035;-61
2021/05/14 18:15:13;;;;;;;5.57;2.70;;;;;;;20.39;42.90;99262.63;5093286;28;20122;-61
2021/05/14 18:17:40;;;;;;;5.70;2.92;;;;;;;20.40;42.81;99267.03;5093589;28;20031;-61
2021/05/14 18:20:08;;;;;;;5.13;2.80;;;;;;;20.39;42.89;99251.09;5093248;28;20063;-61
2021/05/14 18:22:38;;;;;;;6.53;2.95;;;;;;;20.39;42.92;99257.31;5093406;28;20548;-61
2021/05/14 18:25:05;;;;;;;7.72;2.92;;;;;;;20.39;42.83;99259.97;5093813;28;20025;-62
2021/05/14 18:27:34;;;;;;;4.93;2.60;;;;;;;20.39;43.06;99256.44;5093545;28;20067;-61
2021/05/14 18:30:01;;;;;;;5.32;2.55;;;;;;;20.40;43.10;99258.16;5093223;28;20036;-62
2021/05/14 18:32:27;;;;;;;5.20;2.72;;;;;;;20.40;43.12;99255.50;5093198;28;20080;-62
2021/05/14 18:34:53;;;;;;;6.28;3.05;;;;;;;20.40;43.01;99255.50;5093137;28;20032;-62
2021/05/14 18:37:21;;;;;;;6.15;2.78;;;;;;;20.40;42.95;99263.50;5093172;28;20435;-62
2021/05/14 18:39:48;;;;;;;5.15;2.60;;;;;;;20.41;43.13;99257.22;5093125;28;20384;-62
2021/05/14 18:42:14;;;;;;;5.10;2.63;;;;;;;20.40;43.14;99263.50;5093632;28;20040;-62
2021/05/14 18:44:41;;;;;;;6.15;2.60;;;;;;;20.40;43.09;99267.03;5093305;28;20133;-62
2021/05/14 18:47:07;;;;;;;5.97;2.78;;;;;;;20.41;43.13;99268.75;5093048;28;20028;-62
2021/05/14 18:49:33;;;;;;;5.47;2.80;;;;;;;20.39;43.29;99257.31;5093044;28;20024;-61
2021/05/14 18:51:59;;;;;;;5.65;2.70;;;;;;;20.41;43.22;99266.09;5093000;28;20060;-62
2021/05/14 18:54:25;;;;;;;5.38;2.63;;;;;;;20.40;43.36;99260.84;5091740;28;20433;-62
2021/05/14 18:56:52;;;;;;;5.15;2.50;;;;;;;20.40;43.39;99264.38;5092975;28;20070;-62
2021/05/14 18:59:18;;;;;;;5.53;2.60;;;;;;;20.40;43.14;99267.03;5093390;28;20521;-62
2021/05/14 19:01:45;;;;;;;5.45;2.85;;;;;;;20.41;43.41;99268.75;5093465;28;20040;-62
2021/05/14 19:04:11;;;;;;;6.18;2.80;;;;;;;20.41;43.32;99266.09;5091575;28;20089;-62
2021/05/14 19:06:37;;;;;;;4.30;2.50;;;;;;;20.41;43.35;99266.09;5095524;28;20400;-62
2021/05/14 19:09:04;;;;;;;5.13;2.80;;;;;;;20.41;43.28;99270.56;5096940;28;20083;-62
2021/05/14 19:11:30;;;;;;;5.90;2.85;;;;;;;20.41;43.23;99270.56;5096936;28;20028;-61
2021/05/14 19:14:03;;;;;;;5.57;2.50;;;;;;;20.40;43.44;99279.50;5096592;28;20032;-62
2021/05/14 19:16:30;;;;;;;5.45;2.60;;;;;;;20.40;43.48;99272.38;5097169;28;20032;-62
2021/05/14 19:18:58;;;;;;;7.03;2.67;;;;;;;20.40;43.32;99272.38;5096368;28;20029;-62
2021/05/14 19:21:28;;;;;;;4.97;2.50;;;;;;;20.40;43.30;99280.34;5096643;28;20024;-62
2021/05/14 19:27:03;;;;;;;4.75;2.45;;;;;;;20.41;43.33;99281.22;5054661;28;20044;-61
2021/05/14 19:35:25;;;;;;;5.38;2.58;;;;;;;20.41;43.51;99299.88;4975011;28;20038;-61
2021/05/14 19:44:41;;;;;;;5.03;2.70;;;;;;;20.41;43.64;99303.41;5053955;28;20070;-61
2021/05/14 19:46:39;;;;;;;6.25;2.72;;;;;;;20.40;43.67;99308.81;5020084;28;20086;-62
2021/05/14 19:49:05;;;;;;;5.10;2.70;;;;;;;20.39;43.57;99313.28;5053683;28;20444;-62
2021/05/14 19:51:31;;;;;;;4.93;2.60;;;;;;;20.41;43.55;99314.09;5053837;28;20402;-62
2021/05/14 19:53:57;;;;;;;4.55;2.50;;;;;;;20.40;43.67;99315.03;5020570;28;20108;-62
2021/05/14 19:56:23;;;;;;;4.88;2.53;;;;;;;20.40;43.64;99308.81;5036820;28;20037;-62
2021/05/14 19:58:50;;;;;;;4.22;2.42;;;;;;;20.40;43.69;99317.69;5053424;28;20032;-62
2021/05/14 20:01:16;;;;;;;4.63;2.50;;;;;;;20.41;43.59;99321.22;5053679;28;20041;-62
2021/05/14 20:03:42;;;;;;;6.25;2.67;;;;;;;20.41;43.48;99327.41;5076727;28;20040;-62